createdAt,value
2017-09-11T00:00:07.229Z,7.83
2017-09-11T00:02:35.069Z,7.20
2017-09-11T00:05:02.884Z,7.13
2017-09-11T00:07:30.782Z,6.10
2017-09-11T00:09:58.796Z,7.43
2017-09-11T00:12:26.780Z,7.67
2017-09-11T00:14:54.573Z,7.60
2017-09-11T00:17:22.352Z,7.23
2017-09-11T00:19:50.148Z,6.67
2017-09-11T00:22:18.765Z,6.87
2017-09-11T00:24:46.589Z,7.17
2017-09-11T00:27:14.413Z,7.33
2017-09-11T00:29:42.417Z,6.47
2017-09-11T00:32:10.245Z,7.57
2017-09-11T00:34:38.036Z,6.30
2017-09-11T00:37:05.842Z,7.20
2017-09-11T00:39:33.742Z,6.37
2017-09-11T00:42:01.532Z,6.50
2017-09-11T00:44:29.437Z,7.20
2017-09-11T00:46:57.333Z,6.60
2017-09-11T00:49:25.181Z,6.70
2017-09-11T00:51:53.116Z,5.83
2017-09-11T00:54:21.109Z,5.87
2017-09-11T00:56:49.062Z,6.30
2017-09-11T00:59:16.955Z,6.73
2017-09-11T01:01:44.817Z,7.27
2017-09-11T01:04:12.730Z,6.27
2017-09-11T01:06:40.671Z,8.23
2017-09-11T01:09:08.615Z,7.10
2017-09-11T01:11:36.684Z,6.83
2017-09-11T01:14:05.325Z,6.27
2017-09-11T01:16:33.197Z,6.50
2017-09-11T01:19:01.136Z,6.23
2017-09-11T01:21:28.983Z,7.33
2017-09-11T01:23:56.978Z,6.87
2017-09-11T01:26:24.907Z,7.30
2017-09-11T01:28:53.791Z,8.30
2017-09-11T01:31:21.687Z,6.97
2017-09-11T01:33:49.575Z,7.87
2017-09-11T01:36:17.464Z,7.57
2017-09-11T01:38:45.308Z,7.10
2017-09-11T01:41:13.112Z,6.80
2017-09-11T01:43:41.723Z,7.10
2017-09-11T01:46:09.727Z,6.70
2017-09-11T01:48:37.604Z,7.20
2017-09-11T01:51:05.527Z,6.10
2017-09-11T01:53:33.598Z,5.97
2017-09-11T01:56:01.548Z,6.27
2017-09-11T01:58:29.549Z,5.75
2017-09-11T02:00:57.440Z,5.50
2017-09-11T02:03:25.318Z,6.13
2017-09-11T02:05:53.252Z,5.43
2017-09-11T02:08:21.123Z,5.37
2017-09-11T02:10:49.075Z,5.33
2017-09-11T02:13:16.999Z,6.90
2017-09-11T02:15:44.909Z,5.00
2017-09-11T02:18:12.771Z,5.00
2017-09-11T02:20:40.669Z,5.80
2017-09-11T02:23:08.583Z,4.80
2017-09-11T02:25:36.463Z,5.97
2017-09-11T02:28:04.318Z,6.10
2017-09-11T02:30:32.294Z,5.47
2017-09-11T02:33:00.198Z,6.00
2017-09-11T02:35:28.081Z,5.80
2017-09-11T02:37:55.975Z,7.17
2017-09-11T02:40:23.909Z,6.47
2017-09-11T02:42:51.839Z,6.80
2017-09-11T02:45:19.664Z,6.23
2017-09-11T02:47:47.616Z,5.93
2017-09-11T02:50:15.449Z,5.43
2017-09-11T02:52:43.337Z,5.83
2017-09-11T02:55:11.179Z,6.07
2017-09-11T02:57:39.005Z,5.83
2017-09-11T03:00:06.822Z,5.90
2017-09-11T03:02:34.683Z,6.20
2017-09-11T03:05:02.579Z,6.50
2017-09-11T03:07:30.417Z,5.70
2017-09-11T03:09:58.254Z,6.37
2017-09-11T03:12:26.960Z,5.57
2017-09-11T03:14:54.895Z,6.17
2017-09-11T03:17:23.545Z,5.90
2017-09-11T03:19:51.495Z,5.23
2017-09-11T03:22:19.342Z,6.10
2017-09-11T03:24:47.246Z,5.93
2017-09-11T03:27:15.101Z,7.17
2017-09-11T03:29:42.907Z,6.40
2017-09-11T03:32:10.764Z,6.73
2017-09-11T03:34:38.607Z,5.00
2017-09-11T03:37:06.556Z,5.83
2017-09-11T03:39:34.392Z,5.83
2017-09-11T03:42:03.031Z,6.17
2017-09-11T03:44:30.977Z,6.27
2017-09-11T03:46:58.959Z,6.47
2017-09-11T03:49:26.865Z,7.23
2017-09-11T03:51:54.685Z,7.03
2017-09-11T03:54:22.518Z,6.60
2017-09-11T03:56:51.141Z,6.40
2017-09-11T03:59:18.975Z,6.50
2017-09-11T04:01:46.799Z,5.47
2017-09-11T04:04:14.653Z,5.57
2017-09-11T04:06:42.574Z,6.87
2017-09-11T04:09:10.452Z,6.00
2017-09-11T04:11:38.328Z,5.87
2017-09-11T04:14:06.420Z,5.87
2017-09-11T04:16:34.267Z,5.03
2017-09-11T04:19:02.207Z,5.30
2017-09-11T04:21:30.015Z,5.70
2017-09-11T04:23:57.841Z,5.60
2017-09-11T04:26:25.787Z,5.17
2017-09-11T04:28:53.640Z,4.93
2017-09-11T04:31:21.460Z,6.03
2017-09-11T04:33:49.360Z,5.73
2017-09-11T04:36:17.259Z,6.10
2017-09-11T04:38:45.118Z,6.17
2017-09-11T04:41:13.150Z,5.70
2017-09-11T04:43:40.998Z,8.03
2017-09-11T04:46:08.958Z,5.80
2017-09-11T04:48:36.852Z,5.80
2017-09-11T04:51:04.761Z,6.27
2017-09-11T04:53:32.631Z,4.87
2017-09-11T04:56:01.407Z,7.40
2017-09-11T04:58:29.334Z,6.30
2017-09-11T05:00:57.169Z,5.73
2017-09-11T05:03:25.284Z,6.53
2017-09-11T05:05:53.230Z,6.03
2017-09-11T05:08:21.142Z,6.60
2017-09-11T05:10:49.319Z,6.03
2017-09-11T05:13:17.400Z,5.50
2017-09-11T05:15:45.301Z,6.70
2017-09-11T05:18:13.218Z,6.53
2017-09-11T05:20:41.063Z,6.60
2017-09-11T05:23:08.898Z,6.93
2017-09-11T05:25:36.831Z,6.33
2017-09-11T05:28:04.668Z,5.90
2017-09-11T05:30:32.635Z,7.50
2017-09-11T05:33:00.541Z,7.23
2017-09-11T05:35:28.892Z,7.80
2017-09-11T05:37:56.868Z,6.40
2017-09-11T05:40:24.875Z,6.77
2017-09-11T05:42:54.536Z,5.77
2017-09-11T05:45:22.388Z,7.17
2017-09-11T05:47:51.000Z,6.13
2017-09-11T05:50:18.883Z,6.03
2017-09-11T05:52:46.795Z,6.50
2017-09-11T05:55:14.652Z,8.10
2017-09-11T05:57:42.511Z,6.73
2017-09-11T06:00:10.345Z,8.60
2017-09-11T06:02:38.173Z,7.55
2017-09-11T06:05:06.075Z,7.47
2017-09-11T06:07:34.052Z,7.30
2017-09-11T06:10:01.858Z,7.00
2017-09-11T06:12:29.721Z,7.03
2017-09-11T06:14:57.567Z,6.73
2017-09-11T06:17:25.450Z,7.40
2017-09-11T06:19:53.268Z,7.73
2017-09-11T06:22:21.109Z,7.90
2017-09-11T06:24:49.085Z,9.73
2017-09-11T06:27:16.938Z,8.50
2017-09-11T06:29:44.813Z,7.70
2017-09-11T06:32:12.744Z,6.73
2017-09-11T06:34:40.577Z,7.40
2017-09-11T06:37:08.456Z,7.63
2017-09-11T06:39:36.296Z,7.20
2017-09-11T06:42:04.948Z,7.53
2017-09-11T06:44:32.801Z,6.60
2017-09-11T06:47:00.752Z,7.37
2017-09-11T06:49:28.746Z,7.00
2017-09-11T06:51:56.826Z,7.57
2017-09-11T06:54:26.268Z,7.83
2017-09-11T06:56:54.844Z,7.20
2017-09-11T06:59:23.814Z,7.50
2017-09-11T07:01:51.765Z,7.53
2017-09-11T07:04:19.620Z,6.83
2017-09-11T07:06:47.475Z,8.37
2017-09-11T07:09:15.363Z,7.50
2017-09-11T07:11:43.311Z,7.43
2017-09-11T07:14:11.278Z,8.20
2017-09-11T07:16:39.208Z,8.47
2017-09-11T07:19:07.875Z,8.00
2017-09-11T07:21:35.809Z,7.80
2017-09-11T07:24:03.648Z,7.80
2017-09-11T07:26:31.528Z,7.90
2017-09-11T07:29:00.727Z,7.13
2017-09-11T07:31:28.615Z,8.00
2017-09-11T07:33:59.982Z,7.20
2017-09-11T07:36:27.817Z,8.33
2017-09-11T07:38:55.726Z,7.32
2017-09-11T07:41:23.574Z,8.33
2017-09-11T07:43:51.564Z,7.40
2017-09-11T07:46:19.411Z,7.63
2017-09-11T07:48:47.332Z,7.80
2017-09-11T07:51:15.159Z,7.33
2017-09-11T07:53:43.004Z,7.30
2017-09-11T07:56:10.881Z,8.00
2017-09-11T07:58:38.849Z,6.73
2017-09-11T08:01:06.684Z,7.80
2017-09-11T08:03:34.588Z,8.37
2017-09-11T08:06:02.439Z,7.63
2017-09-11T08:08:30.262Z,7.23
2017-09-11T08:10:58.201Z,7.00
2017-09-11T08:13:26.862Z,8.50
2017-09-11T08:15:54.700Z,7.60
2017-09-11T08:18:22.565Z,7.60
2017-09-11T08:20:50.387Z,6.65
2017-09-11T08:23:18.275Z,8.03
2017-09-11T08:25:46.158Z,7.55
2017-09-11T08:28:13.986Z,6.77
2017-09-11T08:30:41.825Z,7.90
2017-09-11T08:33:09.682Z,8.15
2017-09-11T08:35:37.734Z,7.70
2017-09-11T08:38:05.617Z,7.45
2017-09-11T08:40:33.599Z,7.90
2017-09-11T08:43:01.416Z,8.15
2017-09-11T08:45:29.996Z,8.47
2017-09-11T08:47:58.730Z,7.90
2017-09-11T08:50:26.635Z,7.60
2017-09-11T08:52:55.286Z,7.80
2017-09-11T08:55:23.140Z,7.20
2017-09-11T08:57:51.163Z,7.90
2017-09-11T09:00:19.095Z,6.37
2017-09-11T09:02:46.915Z,7.30
2017-09-11T09:05:14.828Z,6.93
2017-09-11T09:07:42.704Z,8.00
2017-09-11T09:10:10.597Z,7.20
2017-09-11T09:12:39.251Z,8.00
2017-09-11T09:15:07.170Z,7.43
2017-09-11T09:17:35.076Z,7.40
2017-09-11T09:20:02.925Z,7.10
2017-09-11T09:22:30.819Z,6.23
2017-09-11T09:24:58.701Z,6.23
2017-09-11T09:27:26.649Z,6.37
2017-09-11T09:29:54.510Z,7.57
2017-09-11T09:32:22.786Z,6.63
2017-09-11T09:34:50.632Z,6.17
2017-09-11T09:37:18.460Z,6.50
2017-09-11T09:39:47.089Z,6.67
2017-09-11T09:42:14.944Z,7.03
2017-09-11T09:44:42.769Z,6.37
2017-09-11T09:47:11.383Z,7.30
2017-09-11T09:49:39.195Z,7.60
2017-09-11T09:52:07.042Z,6.40
2017-09-11T09:54:34.908Z,6.50
2017-09-11T09:57:02.725Z,8.00
2017-09-11T09:59:31.387Z,7.50
2017-09-11T10:02:00.014Z,7.60
2017-09-11T10:04:27.979Z,7.47
2017-09-11T10:06:55.783Z,7.63
2017-09-11T10:09:24.663Z,7.90
2017-09-11T10:11:52.483Z,6.13
2017-09-11T10:14:20.395Z,6.60
2017-09-11T10:16:48.228Z,6.43
2017-09-11T10:19:16.249Z,7.83
2017-09-11T10:21:44.163Z,6.57
2017-09-11T10:24:11.996Z,5.80
2017-09-11T10:26:40.046Z,7.00
2017-09-11T10:29:08.059Z,6.83
2017-09-11T10:31:36.790Z,5.97
2017-09-11T10:34:05.189Z,6.40
2017-09-11T10:36:33.326Z,7.40
2017-09-11T10:39:01.278Z,6.33
2017-09-11T10:41:29.164Z,7.20
2017-09-11T10:43:57.937Z,7.50
2017-09-11T10:46:25.942Z,7.33
2017-09-11T10:48:53.890Z,8.30
2017-09-11T10:51:21.708Z,9.70
2017-09-11T10:53:50.348Z,10.63
2017-09-11T10:56:18.201Z,8.87
2017-09-11T10:58:46.091Z,10.57
2017-09-11T11:01:13.925Z,9.90
2017-09-11T11:03:41.774Z,9.43
2017-09-11T11:06:09.598Z,10.70
2017-09-11T11:08:37.424Z,8.97
2017-09-11T11:11:05.376Z,9.13
2017-09-11T11:13:33.227Z,9.33
2017-09-11T11:16:01.805Z,8.53
2017-09-11T11:18:30.432Z,8.53
2017-09-11T11:20:58.301Z,7.83
2017-09-11T11:23:26.402Z,8.80
2017-09-11T11:25:54.357Z,8.70
2017-09-11T11:28:22.169Z,8.83
2017-09-11T11:30:50.915Z,7.90
2017-09-11T11:33:18.782Z,9.03
2017-09-11T11:35:46.768Z,9.20
2017-09-11T11:38:14.687Z,8.23
2017-09-11T11:40:42.525Z,9.70
2017-09-11T11:43:11.129Z,9.43
2017-09-11T11:45:38.976Z,9.40
2017-09-11T11:48:07.637Z,9.40
2017-09-11T11:50:35.508Z,8.90
2017-09-11T11:53:03.455Z,10.20
2017-09-11T11:55:31.339Z,10.20
2017-09-11T11:57:59.302Z,9.47
2017-09-11T12:00:27.198Z,9.27
2017-09-11T12:02:55.103Z,9.30
2017-09-11T12:05:22.982Z,9.30
2017-09-11T12:07:50.851Z,10.57
2017-09-11T12:10:18.724Z,9.80
2017-09-11T12:12:46.670Z,9.63
2017-09-11T12:15:14.552Z,9.20
2017-09-11T12:17:42.367Z,9.30
2017-09-11T12:20:10.983Z,9.00
2017-09-11T12:22:38.899Z,8.50
2017-09-11T12:25:07.626Z,9.70
2017-09-11T12:27:35.564Z,8.50
2017-09-11T12:30:04.209Z,8.40
2017-09-11T12:32:32.130Z,6.93
2017-09-11T12:34:59.955Z,7.67
2017-09-11T12:37:27.871Z,7.17
2017-09-11T12:39:55.715Z,6.53
2017-09-11T12:42:23.610Z,6.33
2017-09-11T12:44:51.489Z,5.30
2017-09-11T12:47:19.336Z,6.23
2017-09-11T12:49:47.118Z,6.70
2017-09-11T12:52:15.043Z,5.07
2017-09-11T12:54:43.700Z,6.23
2017-09-11T12:57:11.499Z,6.60
2017-09-11T12:59:40.178Z,5.93
2017-09-11T13:02:08.897Z,5.40
2017-09-11T13:04:36.752Z,5.20
2017-09-11T13:07:04.753Z,5.77
2017-09-11T13:09:32.640Z,5.07
2017-09-11T13:12:00.473Z,3.70
2017-09-11T13:14:28.377Z,4.23
2017-09-11T13:16:56.382Z,4.63
2017-09-11T13:19:27.327Z,4.83
2017-09-11T13:21:55.240Z,4.67
2017-09-11T13:24:23.114Z,5.03
2017-09-11T13:26:50.969Z,5.23
2017-09-11T13:29:18.888Z,4.70
2017-09-11T13:31:48.403Z,5.30
2017-09-11T13:34:16.429Z,4.50
2017-09-11T13:36:44.471Z,4.40
2017-09-11T13:39:12.445Z,4.70
2017-09-11T13:41:40.280Z,6.13
2017-09-11T13:44:08.406Z,5.83
2017-09-11T13:46:36.275Z,6.00
2017-09-11T13:49:04.184Z,5.27
2017-09-11T13:51:32.045Z,6.03
2017-09-11T13:53:59.989Z,5.33
2017-09-11T13:56:29.106Z,5.23
2017-09-11T13:58:57.047Z,6.17
2017-09-11T14:01:24.871Z,4.13
2017-09-11T14:03:52.795Z,6.43
2017-09-11T14:06:21.474Z,5.23
2017-09-11T14:08:49.707Z,4.73
2017-09-11T14:11:17.559Z,4.53
2017-09-11T14:13:45.441Z,4.70
2017-09-11T14:16:13.322Z,5.20
2017-09-11T14:18:41.162Z,6.10
2017-09-11T14:21:09.010Z,6.97
2017-09-11T14:23:37.041Z,6.40
2017-09-11T14:26:05.038Z,6.70
2017-09-11T14:28:32.999Z,7.13
2017-09-11T14:31:01.605Z,15.33
2017-09-11T14:33:29.718Z,23.17
2017-09-11T14:35:57.692Z,14.20
2017-09-11T14:38:25.626Z,11.10
2017-09-11T14:40:53.496Z,11.80
2017-09-11T14:43:21.838Z,8.73
2017-09-11T14:45:49.881Z,7.87
2017-09-11T14:48:17.797Z,8.63
2017-09-11T14:50:45.754Z,8.20
2017-09-11T14:53:13.601Z,8.93
2017-09-11T14:55:42.257Z,8.87
2017-09-11T14:58:10.104Z,7.53
2017-09-11T15:00:38.165Z,8.60
2017-09-11T15:03:06.330Z,7.83
2017-09-11T15:05:34.186Z,7.40
2017-09-11T15:08:02.103Z,8.53
2017-09-11T15:10:30.030Z,9.63
2017-09-11T15:12:58.092Z,8.57
2017-09-11T15:15:26.015Z,7.90
2017-09-11T15:17:53.907Z,7.27
2017-09-11T15:20:22.557Z,7.27
2017-09-11T15:22:50.400Z,7.27
2017-09-11T15:25:18.289Z,7.80
2017-09-11T15:27:46.305Z,7.23
2017-09-11T15:30:14.500Z,6.03
2017-09-11T15:32:43.124Z,7.40
2017-09-11T15:35:11.906Z,5.70
2017-09-11T15:37:39.801Z,5.53
2017-09-11T15:40:07.812Z,6.30
2017-09-11T15:42:35.656Z,7.20
2017-09-11T15:45:04.511Z,5.77
2017-09-11T15:47:32.441Z,5.70
2017-09-11T15:50:00.299Z,4.90
2017-09-11T15:52:28.159Z,6.07
2017-09-11T15:54:56.052Z,4.83
2017-09-11T15:57:23.890Z,6.00
2017-09-11T15:59:51.865Z,4.90
2017-09-11T16:02:19.739Z,4.60
2017-09-11T16:04:47.575Z,4.47
2017-09-11T16:07:15.671Z,4.60
2017-09-11T16:09:43.692Z,4.63
2017-09-11T16:12:12.292Z,4.03
2017-09-11T16:14:40.284Z,3.70
2017-09-11T16:17:08.821Z,4.53
2017-09-11T16:19:36.802Z,4.70
2017-09-11T16:22:05.387Z,3.63
2017-09-11T16:24:34.011Z,4.40
2017-09-11T16:27:01.854Z,3.90
2017-09-11T16:29:30.316Z,4.13
2017-09-11T16:31:59.122Z,3.63
2017-09-11T16:34:27.721Z,3.57
2017-09-11T16:36:55.544Z,4.30
2017-09-11T16:39:23.401Z,3.50
2017-09-11T16:41:51.283Z,4.20
2017-09-11T16:44:19.957Z,5.30
2017-09-11T16:46:47.797Z,4.83
2017-09-11T16:49:15.716Z,4.77
2017-09-11T16:51:44.411Z,4.10
2017-09-11T16:54:12.337Z,4.20
2017-09-11T16:56:41.067Z,3.73
2017-09-11T16:59:09.032Z,4.50
2017-09-11T17:01:37.807Z,3.77
2017-09-11T17:04:07.383Z,3.93
2017-09-11T17:06:35.300Z,3.87
2017-09-11T17:09:04.199Z,4.27
2017-09-11T17:11:32.852Z,5.20
2017-09-11T17:14:01.485Z,4.57
2017-09-11T17:16:29.307Z,5.50
2017-09-11T17:18:58.568Z,4.20
2017-09-11T17:21:26.443Z,4.00
2017-09-11T17:23:54.447Z,4.43
2017-09-11T17:26:22.438Z,3.77
2017-09-11T17:28:50.456Z,4.87
2017-09-11T17:31:18.696Z,4.23
2017-09-11T17:33:47.527Z,5.40
2017-09-11T17:36:15.855Z,4.80
2017-09-11T17:38:43.768Z,4.33
2017-09-11T17:41:11.849Z,5.27
2017-09-11T17:43:41.524Z,5.67
2017-09-11T17:46:09.520Z,4.87
2017-09-11T17:48:38.263Z,5.20
2017-09-11T17:51:06.204Z,4.40
2017-09-11T17:53:34.930Z,4.87
2017-09-11T17:56:03.560Z,5.73
2017-09-11T17:58:31.612Z,5.90
2017-09-11T18:00:59.472Z,6.50
2017-09-11T18:03:27.379Z,5.70
2017-09-11T18:05:55.216Z,5.90
2017-09-11T18:08:23.154Z,5.50
2017-09-11T18:10:51.044Z,6.20
2017-09-11T18:13:19.043Z,6.17
2017-09-11T18:15:48.288Z,5.73
2017-09-11T18:18:16.189Z,5.80
2017-09-11T18:20:44.926Z,5.97
2017-09-11T18:23:12.836Z,5.20
2017-09-11T18:25:40.710Z,5.90
2017-09-11T18:28:08.729Z,5.73
2017-09-11T18:31:10.031Z,5.20
2017-09-11T18:33:38.685Z,5.10
2017-09-11T18:36:06.560Z,5.77
2017-09-11T18:38:34.511Z,4.97
2017-09-11T18:41:02.508Z,6.63
2017-09-11T18:43:30.544Z,5.67
2017-09-11T18:45:59.313Z,5.13
2017-09-11T18:48:27.245Z,5.60
2017-09-11T18:50:55.287Z,6.33
2017-09-11T18:53:23.228Z,6.50
2017-09-11T18:55:51.859Z,6.60
2017-09-11T18:58:19.723Z,6.40
2017-09-11T19:00:47.593Z,5.57
2017-09-11T19:03:16.522Z,6.03
2017-09-11T19:05:45.172Z,6.97
2017-09-11T19:08:13.837Z,5.93
2017-09-11T19:10:44.463Z,7.00
2017-09-11T19:13:14.188Z,7.00
2017-09-11T19:15:42.055Z,6.30
2017-09-11T19:18:10.051Z,7.50
2017-09-11T19:20:38.707Z,7.10
2017-09-11T19:23:07.147Z,6.20
2017-09-11T19:25:36.385Z,6.50
2017-09-11T19:28:05.017Z,5.27
2017-09-11T19:30:33.702Z,7.10
2017-09-11T19:33:01.667Z,5.60
2017-09-11T19:35:29.487Z,5.90
2017-09-11T19:37:57.445Z,5.53
2017-09-11T19:40:25.382Z,6.00
2017-09-11T19:42:53.355Z,6.10
2017-09-11T19:45:21.313Z,5.43
2017-09-11T19:47:49.319Z,6.43
2017-09-11T19:50:17.924Z,6.07
2017-09-11T19:52:45.791Z,5.77
2017-09-11T19:55:13.823Z,5.90
2017-09-11T19:57:41.729Z,6.33
2017-09-11T20:00:09.593Z,6.83
2017-09-11T20:02:37.475Z,6.20
2017-09-11T20:05:06.130Z,6.63
2017-09-11T20:07:33.970Z,5.47
2017-09-11T20:10:01.961Z,4.83
2017-09-11T20:12:29.876Z,5.27
2017-09-11T20:14:58.524Z,4.77
2017-09-11T20:17:26.417Z,5.80
2017-09-11T20:19:55.147Z,5.83
2017-09-11T20:22:24.271Z,5.73
2017-09-11T20:24:52.144Z,5.80
2017-09-11T20:27:20.022Z,6.57
2017-09-11T20:29:47.960Z,6.90
2017-09-11T20:32:15.821Z,6.97
2017-09-11T20:34:43.852Z,7.03
2017-09-11T20:37:11.775Z,6.70
2017-09-11T20:39:39.629Z,7.00
2017-09-11T20:42:07.541Z,6.03
2017-09-11T20:44:36.188Z,5.83
2017-09-11T20:47:04.120Z,5.73
2017-09-11T20:49:35.067Z,6.10
2017-09-11T20:52:02.940Z,5.13
2017-09-11T20:54:30.864Z,5.80
2017-09-11T20:57:01.075Z,5.60
2017-09-11T20:59:28.918Z,5.83
2017-09-11T21:01:57.649Z,5.63
2017-09-11T21:04:25.523Z,6.37
2017-09-11T21:06:54.227Z,5.60
2017-09-11T21:09:22.125Z,4.73
2017-09-11T21:11:49.949Z,5.80
2017-09-11T21:14:20.641Z,5.77
2017-09-11T21:16:48.737Z,6.03
2017-09-11T21:19:17.573Z,5.07
2017-09-11T21:21:45.468Z,5.77
2017-09-11T21:24:13.345Z,5.83
2017-09-11T21:26:41.516Z,4.93
2017-09-11T21:29:10.228Z,6.30
2017-09-11T21:31:38.877Z,5.80
2017-09-11T21:34:07.219Z,6.03
2017-09-11T21:36:35.040Z,5.53
2017-09-11T21:39:03.921Z,7.00
2017-09-11T21:41:32.568Z,6.80
2017-09-11T21:44:00.472Z,7.23
2017-09-11T21:46:29.244Z,6.30
2017-09-11T21:48:57.151Z,5.77
2017-09-11T21:51:25.840Z,6.03
2017-09-11T21:53:53.858Z,5.13
2017-09-11T21:56:21.683Z,5.13
2017-09-11T21:58:49.594Z,5.90
2017-09-11T22:01:17.510Z,6.33
2017-09-11T22:03:45.411Z,6.43
2017-09-11T22:06:13.251Z,6.40
2017-09-11T22:08:41.182Z,5.43
2017-09-11T22:11:09.151Z,6.40
2017-09-11T22:13:37.081Z,6.83
2017-09-11T22:16:04.905Z,5.30
2017-09-11T22:18:32.782Z,7.00
2017-09-11T22:21:00.680Z,7.20
2017-09-11T22:23:28.543Z,6.07
2017-09-11T22:25:56.476Z,6.37
2017-09-11T22:28:24.340Z,7.07
2017-09-11T22:30:52.955Z,6.30
2017-09-11T22:33:20.774Z,7.83
2017-09-11T22:35:49.434Z,6.80
2017-09-11T22:38:17.313Z,6.10
2017-09-11T22:40:45.145Z,6.00
2017-09-11T22:43:13.048Z,5.53
2017-09-11T22:45:40.909Z,6.47
2017-09-11T22:48:08.871Z,5.83
2017-09-11T22:50:36.800Z,5.40
2017-09-11T22:53:04.664Z,5.80
2017-09-11T22:55:32.573Z,4.80
2017-09-11T22:58:00.420Z,6.27
2017-09-11T23:00:28.373Z,5.83
2017-09-11T23:02:56.984Z,5.90
2017-09-11T23:05:24.902Z,6.00
2017-09-11T23:07:52.894Z,5.87
2017-09-11T23:10:20.729Z,6.20
2017-09-11T23:12:49.441Z,5.63
2017-09-11T23:15:17.288Z,6.20
2017-09-11T23:17:45.900Z,6.67
2017-09-11T23:20:14.548Z,6.53
2017-09-11T23:22:42.400Z,6.50
2017-09-11T23:25:11.145Z,5.90
2017-09-11T23:27:39.036Z,6.80
2017-09-11T23:30:06.929Z,6.20
2017-09-11T23:32:34.775Z,5.30
2017-09-11T23:35:02.596Z,4.97
2017-09-11T23:37:30.471Z,4.93
2017-09-11T23:39:59.090Z,4.90
2017-09-11T23:42:26.933Z,5.30
2017-09-11T23:44:54.802Z,5.60
2017-09-11T23:47:22.648Z,4.87
2017-09-11T23:49:50.493Z,5.70
2017-09-11T23:52:18.319Z,4.57
2017-09-11T23:54:46.189Z,4.30
2017-09-11T23:57:14.880Z,4.77
2017-09-11T23:59:43.529Z,4.30
